首页
METAR-TAF:

METAR-TAF

机场 :

巴林国际机场

巴林, 巴林

纬度: 26-16N, 经度: 050-39E, 海拔: 2米

当前天气观测

该预报发布于17分钟前的21:00 UTC
风速13节,风向西北
温度 21°C
湿度 60%
气压 1015 hPa
能见度10公里或以上
1500米以下无云,无积雨云

METAR: OBBI 112100Z 32013KT CAVOK 21/13 Q1015 NOSIG

时间: 00:17 (21:17 UTC)

预报

该预报发布于4小时和17分钟前的17:00 UTC
预报有效从11日的 18点(UTC)到 13日的 00点(UTC)
风速14节,风向北转西北
能见度10公里或以上
少量云层高于3000英尺
成为
从 12日的 18点(UTC)到 12日的 20点(UTC)
风速5节,风向多变

TAF: OBBI 111700Z 1118/1300 33014KT 9999 FEW030 BECMG 1218/1220 VRB05KT

超过4000个机场的气象观测和天气预报(METAR&TAF报告)。

可查询的气象台以黄色和红色小点在地图上表示。

将鼠标移到小点上方,可查看气象台名称。

然后点击查看天气观测和预报。

如需切换地图:点击带黑十字的绿色按钮放大地图;点击带横线的绿色按钮缩小地图;或者点击绿色箭头查看邻近地区的地图。


METAR-TAF: